createdAt,value
2017-11-17T00:00:02.387Z,9.85
2017-11-17T00:01:11.005Z,9.81
2017-11-17T00:02:19.632Z,9.82
2017-11-17T00:03:28.256Z,9.84
2017-11-17T00:04:36.880Z,9.84
2017-11-17T00:05:45.515Z,9.81
2017-11-17T00:06:54.143Z,9.77
2017-11-17T00:08:02.768Z,9.87
2017-11-17T00:09:11.384Z,9.77
2017-11-17T00:10:20.015Z,9.84
2017-11-17T00:11:28.642Z,9.81
2017-11-17T00:12:37.532Z,9.76
2017-11-17T00:13:46.154Z,9.76
2017-11-17T00:14:54.785Z,9.77
2017-11-17T00:16:03.408Z,9.7
2017-11-17T00:17:12.035Z,9.72
2017-11-17T00:18:20.663Z,9.84
2017-11-17T00:19:29.285Z,9.84
2017-11-17T00:20:37.909Z,9.81
2017-11-17T00:21:47.068Z,9.77
2017-11-17T00:22:55.685Z,9.77
2017-11-17T00:24:04.319Z,9.73
2017-11-17T00:25:12.938Z,9.73
2017-11-17T00:26:21.563Z,9.8
2017-11-17T00:27:30.193Z,9.69
2017-11-17T00:28:39.085Z,9.69
2017-11-17T00:29:47.703Z,9.67
2017-11-17T00:30:56.328Z,9.66
2017-11-17T00:32:04.951Z,9.64
2017-11-17T00:33:13.572Z,9.67
2017-11-17T00:34:22.203Z,9.63
2017-11-17T00:35:30.831Z,9.69
2017-11-17T00:36:39.460Z,9.63
2017-11-17T00:37:48.081Z,9.69
2017-11-17T00:38:56.705Z,9.63
2017-11-17T00:40:05.595Z,9.66
2017-11-17T00:41:14.226Z,9.62
2017-11-17T00:42:23.113Z,9.63
2017-11-17T00:43:31.744Z,9.66
2017-11-17T00:44:40.369Z,9.58
2017-11-17T00:45:48.985Z,9.59
2017-11-17T00:46:57.613Z,9.62
2017-11-17T00:48:06.238Z,9.59
2017-11-17T00:49:14.860Z,9.66
2017-11-17T00:50:23.484Z,9.67
2017-11-17T00:51:32.116Z,9.58
2017-11-17T00:52:40.736Z,9.58
2017-11-17T00:53:49.366Z,9.64
2017-11-17T00:54:57.985Z,9.64
2017-11-17T00:56:06.617Z,9.64
2017-11-17T00:57:15.244Z,9.66
2017-11-17T00:58:23.866Z,9.63
2017-11-17T00:59:32.499Z,9.66
2017-11-17T01:00:41.122Z,9.63
2017-11-17T01:01:50.296Z,9.59
2017-11-17T01:02:58.925Z,9.59
2017-11-17T01:04:07.543Z,9.63
2017-11-17T01:05:16.171Z,9.63
2017-11-17T01:06:24.803Z,9.58
2017-11-17T01:07:33.429Z,9.64
2017-11-17T01:08:42.055Z,9.59
2017-11-17T01:09:50.941Z,9.58
2017-11-17T01:10:59.564Z,9.59
2017-11-17T01:12:08.190Z,9.66
2017-11-17T01:13:16.810Z,9.58
2017-11-17T01:14:25.446Z,9.62
2017-11-17T01:15:34.065Z,9.59
2017-11-17T01:16:42.690Z,9.66
2017-11-17T01:17:51.313Z,9.56
2017-11-17T01:18:59.946Z,9.64
2017-11-17T01:20:08.566Z,9.62
2017-11-17T01:21:17.196Z,9.56
2017-11-17T01:22:25.842Z,9.58
2017-11-17T01:23:34.437Z,9.59
2017-11-17T01:24:43.340Z,9.52
2017-11-17T01:25:51.964Z,9.62
2017-11-17T01:27:00.586Z,9.66
2017-11-17T01:28:09.224Z,9.59
2017-11-17T01:29:18.118Z,9.62
2017-11-17T01:30:26.743Z,9.62
2017-11-17T01:31:35.375Z,9.64
2017-11-17T01:32:43.997Z,9.59
2017-11-17T01:33:52.619Z,9.62
2017-11-17T01:35:01.246Z,9.59
2017-11-17T01:36:10.129Z,9.56
2017-11-17T01:37:18.761Z,9.56
2017-11-17T01:38:27.387Z,9.63
2017-11-17T01:39:36.010Z,9.59
2017-11-17T01:40:44.641Z,9.62
2017-11-17T01:41:53.266Z,9.59
2017-11-17T01:43:01.894Z,9.52
2017-11-17T01:44:10.519Z,9.58
2017-11-17T01:45:19.145Z,9.52
2017-11-17T01:46:27.765Z,9.52
2017-11-17T01:47:36.391Z,9.49
2017-11-17T01:48:45.022Z,9.42
2017-11-17T01:49:53.642Z,9.42
2017-11-17T01:51:02.270Z,9.44
2017-11-17T01:52:10.892Z,9.45
2017-11-17T01:53:19.520Z,9.51
2017-11-17T01:54:28.152Z,9.37
2017-11-17T01:55:36.771Z,9.4
2017-11-17T01:56:45.401Z,9.34
2017-11-17T01:57:54.037Z,9.39
2017-11-17T01:59:02.653Z,9.36
2017-11-17T02:00:11.280Z,9.4
2017-11-17T02:01:19.908Z,9.3
2017-11-17T02:02:28.805Z,9.34
2017-11-17T02:03:37.429Z,9.36
2017-11-17T02:04:46.049Z,9.36
2017-11-17T02:05:54.943Z,9.29
2017-11-17T02:07:03.565Z,9.27
2017-11-17T02:08:12.204Z,9.3
2017-11-17T02:09:20.822Z,9.29
2017-11-17T02:10:29.442Z,9.3
2017-11-17T02:11:38.076Z,9.21
2017-11-17T02:12:46.698Z,9.3
2017-11-17T02:13:55.318Z,9.22
2017-11-17T02:15:03.949Z,9.21
2017-11-17T02:16:12.574Z,9.21
2017-11-17T02:17:21.194Z,9.21
2017-11-17T02:18:30.094Z,9.18
2017-11-17T02:19:38.731Z,9.26
2017-11-17T02:20:47.358Z,9.13
2017-11-17T02:21:55.984Z,9.21
2017-11-17T02:23:04.600Z,9.15
2017-11-17T02:24:13.232Z,9.15
2017-11-17T02:25:21.854Z,9.15
2017-11-17T02:26:30.473Z,9.15
2017-11-17T02:27:39.100Z,9.15
2017-11-17T02:28:47.724Z,9.05
2017-11-17T02:29:56.345Z,9.12
2017-11-17T02:31:04.968Z,9.13
2017-11-17T02:32:13.598Z,9.09
2017-11-17T02:33:22.490Z,9.18
2017-11-17T02:34:31.117Z,9.09
2017-11-17T02:35:39.735Z,9.11
2017-11-17T02:36:48.359Z,9.11
2017-11-17T02:37:56.986Z,8.97
2017-11-17T02:39:05.878Z,9.09
2017-11-17T02:40:14.776Z,9.12
2017-11-17T02:41:23.676Z,9.03
2017-11-17T02:42:32.296Z,8.99
2017-11-17T02:43:40.928Z,8.97
2017-11-17T02:44:49.554Z,8.92
2017-11-17T02:45:58.179Z,9.03
2017-11-17T02:47:06.808Z,8.87
2017-11-17T02:48:15.705Z,8.92
2017-11-17T02:49:24.322Z,9.02
2017-11-17T02:50:32.967Z,8.92
2017-11-17T02:51:41.860Z,8.89
2017-11-17T02:52:50.487Z,8.93
2017-11-17T02:53:59.118Z,8.84
2017-11-17T02:55:07.750Z,8.79
2017-11-17T02:56:16.644Z,8.82
2017-11-17T02:57:25.532Z,8.71
2017-11-17T02:58:34.153Z,8.77
2017-11-17T02:59:42.787Z,8.69
2017-11-17T03:00:51.404Z,8.69
2017-11-17T03:02:00.030Z,8.68
2017-11-17T03:03:08.667Z,8.64
2017-11-17T03:04:17.549Z,8.63
2017-11-17T03:05:26.175Z,8.6
2017-11-17T03:06:34.796Z,8.56
2017-11-17T03:07:43.419Z,8.59
2017-11-17T03:08:52.051Z,8.54
2017-11-17T03:10:00.675Z,8.54
2017-11-17T03:11:09.295Z,8.57
2017-11-17T03:12:17.927Z,8.49
2017-11-17T03:13:26.551Z,8.52
2017-11-17T03:14:35.173Z,8.44
2017-11-17T03:15:43.800Z,8.46
2017-11-17T03:16:52.424Z,8.39
2017-11-17T03:18:01.044Z,8.42
2017-11-17T03:19:10.204Z,8.24
2017-11-17T03:20:18.826Z,8.34
2017-11-17T03:21:27.459Z,8.13
2017-11-17T03:22:36.081Z,8.16
2017-11-17T03:23:44.974Z,8.01
2017-11-17T03:24:53.599Z,8.05
2017-11-17T03:26:02.223Z,8.06
2017-11-17T03:27:10.852Z,8.01
2017-11-17T03:28:19.790Z,7.96
2017-11-17T03:29:28.940Z,7.88
2017-11-17T03:30:37.573Z,7.78
2017-11-17T03:31:46.192Z,7.78
2017-11-17T03:32:54.814Z,7.75
2017-11-17T03:34:03.438Z,7.72
2017-11-17T03:35:12.062Z,7.8
2017-11-17T03:36:20.692Z,7.75
2017-11-17T03:37:29.315Z,7.61
2017-11-17T03:38:37.934Z,7.56
2017-11-17T03:39:46.580Z,7.56
2017-11-17T03:40:55.198Z,7.48
2017-11-17T03:42:03.808Z,7.46
2017-11-17T03:43:12.432Z,7.46
2017-11-17T03:44:21.329Z,7.37
2017-11-17T03:45:29.944Z,7.26
2017-11-17T03:46:38.572Z,7.32
2017-11-17T03:47:47.192Z,7.23
2017-11-17T03:48:55.826Z,7.25
2017-11-17T03:50:04.449Z,7.18
2017-11-17T03:51:13.343Z,7.22
2017-11-17T03:52:21.967Z,7.15
2017-11-17T03:53:30.593Z,7.1
2017-11-17T03:54:39.214Z,7.11
2017-11-17T03:55:47.841Z,7.04
2017-11-17T03:56:56.463Z,7.03
2017-11-17T03:58:05.101Z,7.01
2017-11-17T03:59:13.719Z,6.93
2017-11-17T04:00:22.337Z,6.92
2017-11-17T04:01:30.961Z,6.9
2017-11-17T04:02:39.580Z,6.89
2017-11-17T04:03:48.211Z,6.74
2017-11-17T04:04:56.833Z,6.8
2017-11-17T04:06:05.455Z,6.78
2017-11-17T04:07:14.087Z,6.72
2017-11-17T04:08:22.704Z,6.68
2017-11-17T04:09:31.326Z,6.7
2017-11-17T04:10:39.951Z,6.7
2017-11-17T04:11:48.853Z,6.68
2017-11-17T04:12:57.480Z,6.65
2017-11-17T04:14:06.094Z,6.6
2017-11-17T04:15:14.722Z,6.59
2017-11-17T04:16:23.339Z,6.57
2017-11-17T04:17:31.971Z,6.6
2017-11-17T04:18:40.593Z,6.52
2017-11-17T04:19:49.314Z,6.5
2017-11-17T04:20:58.304Z,6.56
2017-11-17T04:22:06.927Z,6.43
2017-11-17T04:23:15.814Z,6.52
2017-11-17T04:24:24.439Z,6.43
2017-11-17T04:25:33.054Z,6.34
2017-11-17T04:26:41.674Z,6.41
2017-11-17T04:27:50.303Z,6.44
2017-11-17T04:28:58.921Z,6.39
2017-11-17T04:30:07.545Z,6.36
2017-11-17T04:31:16.175Z,6.34
2017-11-17T04:32:25.333Z,6.34
2017-11-17T04:33:33.960Z,6.29
2017-11-17T04:34:42.579Z,6.29
2017-11-17T04:35:51.209Z,6.22
2017-11-17T04:37:00.105Z,6.19
2017-11-17T04:38:08.725Z,6.17
2017-11-17T04:39:17.346Z,6.17
2017-11-17T04:40:25.973Z,6.15
2017-11-17T04:41:34.598Z,6.2
2017-11-17T04:42:43.213Z,6.1
2017-11-17T04:43:52.108Z,6.05
2017-11-17T04:45:00.728Z,5.99
2017-11-17T04:46:09.353Z,5.97
2017-11-17T04:47:17.967Z,6.01
2017-11-17T04:48:26.592Z,6.02
2017-11-17T04:49:35.225Z,5.99
2017-11-17T04:50:43.840Z,5.87
2017-11-17T04:51:52.463Z,5.99
2017-11-17T04:53:01.093Z,5.92
2017-11-17T04:54:09.710Z,5.87
2017-11-17T04:55:18.337Z,5.83
2017-11-17T04:56:26.955Z,5.81
2017-11-17T04:57:35.578Z,5.79
2017-11-17T04:58:44.206Z,5.77
2017-11-17T04:59:52.829Z,5.77
2017-11-17T05:01:01.452Z,5.77
2017-11-17T05:02:10.065Z,5.59
2017-11-17T05:03:18.688Z,5.64
2017-11-17T05:04:27.314Z,5.67
2017-11-17T05:05:36.209Z,5.69
2017-11-17T05:06:44.825Z,5.65
2017-11-17T05:07:53.454Z,5.61
2017-11-17T05:09:02.080Z,5.55
2017-11-17T05:10:10.695Z,5.55
2017-11-17T05:11:19.323Z,5.55
2017-11-17T05:12:27.946Z,5.52
2017-11-17T05:13:36.828Z,5.44
2017-11-17T05:14:45.453Z,5.47
2017-11-17T05:15:54.072Z,5.51
2017-11-17T05:17:02.968Z,5.49
2017-11-17T05:18:11.585Z,5.38
2017-11-17T05:19:20.207Z,5.41
2017-11-17T05:20:29.106Z,5.47
2017-11-17T05:21:37.989Z,5.46
2017-11-17T05:22:46.610Z,5.38
2017-11-17T05:23:55.233Z,5.36
2017-11-17T05:25:03.864Z,5.41
2017-11-17T05:26:12.483Z,5.38
2017-11-17T05:27:21.107Z,5.38
2017-11-17T05:28:29.731Z,5.37
2017-11-17T05:29:38.343Z,5.29
2017-11-17T05:30:46.973Z,5.29
2017-11-17T05:31:55.593Z,5.36
2017-11-17T05:33:04.217Z,5.31
2017-11-17T05:34:12.841Z,5.22
2017-11-17T05:35:21.457Z,5.19
2017-11-17T05:36:30.081Z,5.19
2017-11-17T05:37:38.704Z,5.2
2017-11-17T05:38:47.322Z,5.15
2017-11-17T05:39:55.949Z,5.23
2017-11-17T05:41:04.863Z,5.16
2017-11-17T05:42:13.483Z,5.18
2017-11-17T05:43:22.105Z,5.1
2017-11-17T05:44:31.003Z,5.13
2017-11-17T05:45:39.623Z,5.02
2017-11-17T05:46:48.245Z,5
2017-11-17T05:47:56.858Z,5.02
2017-11-17T05:49:05.483Z,4.9
2017-11-17T05:50:14.109Z,4.92
2017-11-17T05:51:22.726Z,4.97
2017-11-17T05:52:31.363Z,4.92
2017-11-17T05:53:40.242Z,4.95
2017-11-17T05:54:48.864Z,4.92
2017-11-17T05:55:57.753Z,4.97
2017-11-17T05:57:06.367Z,4.94
2017-11-17T05:58:14.989Z,4.87
2017-11-17T05:59:23.616Z,4.9
2017-11-17T06:00:32.240Z,4.84
2017-11-17T06:01:40.867Z,4.84
2017-11-17T06:02:49.480Z,4.87
2017-11-17T06:03:58.106Z,4.78
2017-11-17T06:05:06.727Z,4.82
2017-11-17T06:06:15.343Z,4.76
2017-11-17T06:07:23.965Z,4.84
2017-11-17T06:08:32.589Z,4.79
2017-11-17T06:09:41.208Z,4.83
2017-11-17T06:10:49.824Z,4.83
2017-11-17T06:11:58.453Z,4.75
2017-11-17T06:13:07.079Z,4.67
2017-11-17T06:14:15.706Z,4.68
2017-11-17T06:15:24.320Z,4.66
2017-11-17T06:16:32.943Z,4.66
2017-11-17T06:17:41.570Z,4.68
2017-11-17T06:18:50.188Z,4.7
2017-11-17T06:19:58.809Z,4.63
2017-11-17T06:21:07.438Z,4.67
2017-11-17T06:22:16.059Z,4.61
2017-11-17T06:23:24.689Z,4.5
2017-11-17T06:24:33.308Z,4.66
2017-11-17T06:25:41.934Z,4.68
2017-11-17T06:26:50.555Z,4.7
2017-11-17T06:27:59.178Z,4.66
2017-11-17T06:29:07.800Z,4.64
2017-11-17T06:30:16.987Z,4.64
2017-11-17T06:31:25.584Z,4.49
2017-11-17T06:32:34.468Z,4.5
2017-11-17T06:33:43.364Z,4.6
2017-11-17T06:34:51.988Z,4.52
2017-11-17T06:36:00.610Z,4.57
2017-11-17T06:37:09.232Z,4.52
2017-11-17T06:38:17.862Z,4.64
2017-11-17T06:39:26.475Z,4.68
2017-11-17T06:40:35.368Z,4.67
2017-11-17T06:41:43.992Z,4.68
2017-11-17T06:42:52.609Z,4.61
2017-11-17T06:44:01.239Z,4.68
2017-11-17T06:45:09.856Z,4.64
2017-11-17T06:46:18.749Z,4.63
2017-11-17T06:47:27.379Z,4.64
2017-11-17T06:48:35.990Z,4.52
2017-11-17T06:49:44.612Z,4.56
2017-11-17T06:50:53.233Z,4.52
2017-11-17T06:52:02.134Z,4.5
2017-11-17T06:53:10.746Z,4.46
2017-11-17T06:54:19.370Z,4.48
2017-11-17T06:55:27.984Z,4.45
2017-11-17T06:56:36.610Z,4.49
2017-11-17T06:57:45.226Z,4.42
2017-11-17T06:58:53.855Z,4.39
2017-11-17T07:00:02.740Z,4.34
2017-11-17T07:01:11.371Z,4.39
2017-11-17T07:02:19.989Z,4.39
2017-11-17T07:03:28.609Z,4.34
2017-11-17T07:04:37.233Z,4.42
2017-11-17T07:05:45.853Z,4.34
2017-11-17T07:06:54.468Z,4.42
2017-11-17T07:08:03.093Z,4.42
2017-11-17T07:09:11.718Z,4.42
2017-11-17T07:10:20.331Z,4.4
2017-11-17T07:11:28.957Z,4.36
2017-11-17T07:12:37.581Z,4.27
2017-11-17T07:13:46.201Z,4.27
2017-11-17T07:14:54.829Z,4.32
2017-11-17T07:16:03.443Z,4.24
2017-11-17T07:17:12.070Z,4.3
2017-11-17T07:18:20.698Z,4.31
2017-11-17T07:19:29.576Z,4.32
2017-11-17T07:20:38.204Z,4.27
2017-11-17T07:21:46.824Z,4.39
2017-11-17T07:22:55.445Z,4.31
2017-11-17T07:24:04.071Z,4.27
2017-11-17T07:25:12.683Z,4.3
2017-11-17T07:26:21.313Z,4.32
2017-11-17T07:27:29.930Z,4.27
2017-11-17T07:28:38.564Z,4.31
2017-11-17T07:29:47.179Z,4.31
2017-11-17T07:30:55.799Z,4.34
2017-11-17T07:32:04.424Z,4.24
2017-11-17T07:33:13.052Z,4.34
2017-11-17T07:34:21.661Z,4.32
2017-11-17T07:35:30.284Z,4.27
2017-11-17T07:36:38.910Z,4.34
2017-11-17T07:37:47.525Z,4.31
2017-11-17T07:38:56.684Z,4.3
2017-11-17T07:40:05.308Z,4.3
2017-11-17T07:41:13.926Z,4.31
2017-11-17T07:42:22.553Z,4.27
2017-11-17T07:43:31.167Z,4.38
2017-11-17T07:44:39.793Z,4.3
2017-11-17T07:45:48.417Z,4.39
2017-11-17T07:46:57.033Z,4.38
2017-11-17T07:48:05.657Z,4.38
2017-11-17T07:49:14.284Z,4.46
2017-11-17T07:50:22.906Z,4.34
2017-11-17T07:51:31.526Z,4.42
2017-11-17T07:52:40.141Z,4.46
2017-11-17T07:53:48.767Z,4.48
2017-11-17T07:54:57.399Z,4.53
2017-11-17T07:56:06.008Z,4.64
2017-11-17T07:57:14.911Z,4.67
2017-11-17T07:58:23.532Z,4.66
2017-11-17T07:59:32.444Z,4.76
2017-11-17T08:00:41.054Z,4.76
2017-11-17T08:01:49.668Z,4.75
2017-11-17T08:02:58.290Z,4.75
2017-11-17T08:04:06.912Z,4.79
2017-11-17T08:05:15.804Z,4.79
2017-11-17T08:06:24.429Z,4.83
2017-11-17T08:07:33.055Z,4.78
2017-11-17T08:08:41.675Z,4.79
2017-11-17T08:09:50.293Z,4.89
2017-11-17T08:10:58.922Z,4.83
2017-11-17T08:12:07.540Z,4.94
2017-11-17T08:13:16.166Z,4.87
2017-11-17T08:14:24.781Z,4.94
2017-11-17T08:15:33.406Z,4.9
2017-11-17T08:16:42.029Z,4.92
2017-11-17T08:17:50.649Z,4.94
2017-11-17T08:18:59.547Z,4.9
2017-11-17T08:20:08.174Z,4.92
2017-11-17T08:21:16.797Z,4.97
2017-11-17T08:22:25.415Z,5.02
2017-11-17T08:23:34.046Z,4.98
2017-11-17T08:24:42.667Z,5.12
2017-11-17T08:25:51.288Z,5.13
2017-11-17T08:26:59.908Z,5.15
2017-11-17T08:28:08.526Z,5.22
2017-11-17T08:29:17.155Z,5.23
2017-11-17T08:30:25.776Z,5.23
2017-11-17T08:31:34.392Z,5.34
2017-11-17T08:32:43.019Z,5.28
2017-11-17T08:33:51.916Z,5.36
2017-11-17T08:35:00.532Z,5.37
2017-11-17T08:36:09.427Z,5.38
2017-11-17T08:37:18.061Z,5.43
2017-11-17T08:38:26.941Z,5.52
2017-11-17T08:39:35.570Z,5.44
2017-11-17T08:40:44.188Z,5.47
2017-11-17T08:41:52.817Z,5.47
2017-11-17T08:43:01.439Z,5.54
2017-11-17T08:44:10.336Z,5.51
2017-11-17T08:45:18.964Z,5.55
2017-11-17T08:46:27.591Z,5.61
2017-11-17T08:47:36.208Z,5.64
2017-11-17T08:48:44.831Z,5.65
2017-11-17T08:49:53.456Z,5.67
2017-11-17T08:51:02.084Z,5.7
2017-11-17T08:52:10.711Z,5.79
2017-11-17T08:53:19.327Z,5.81
2017-11-17T08:54:27.952Z,5.83
2017-11-17T08:55:36.568Z,5.91
2017-11-17T08:56:45.198Z,5.87
2017-11-17T08:57:53.817Z,5.9
2017-11-17T08:59:02.437Z,5.98
2017-11-17T09:00:11.063Z,5.99
2017-11-17T09:01:20.213Z,5.95
2017-11-17T09:02:29.100Z,6.1
2017-11-17T09:03:37.728Z,6.01
2017-11-17T09:04:46.349Z,6.15
2017-11-17T09:05:54.966Z,6.1
2017-11-17T09:07:03.593Z,6.15
2017-11-17T09:08:12.222Z,6.2
2017-11-17T09:09:20.839Z,6.17
2017-11-17T09:10:29.469Z,6.16
2017-11-17T09:11:38.089Z,6.25
2017-11-17T09:12:46.715Z,6.22
2017-11-17T09:13:55.606Z,6.29
2017-11-17T09:15:04.489Z,6.38
2017-11-17T09:16:13.117Z,6.35
2017-11-17T09:17:21.739Z,6.32
2017-11-17T09:18:30.357Z,6.39
2017-11-17T09:19:38.981Z,6.39
2017-11-17T09:20:47.609Z,6.43
2017-11-17T09:21:56.229Z,6.44
2017-11-17T09:23:05.122Z,6.49
2017-11-17T09:24:13.751Z,6.49
2017-11-17T09:25:22.373Z,6.47
2017-11-17T09:26:31.261Z,6.57
2017-11-17T09:27:39.878Z,6.53
2017-11-17T09:28:49.085Z,6.56
2017-11-17T09:29:57.982Z,6.62
2017-11-17T09:31:06.600Z,6.6
2017-11-17T09:32:15.219Z,6.67
2017-11-17T09:33:23.848Z,6.72
2017-11-17T09:34:32.470Z,6.7
2017-11-17T09:35:41.150Z,6.7
2017-11-17T09:36:49.780Z,6.82
2017-11-17T09:37:58.404Z,6.8
2017-11-17T09:39:07.026Z,6.8
2017-11-17T09:40:15.919Z,6.77
2017-11-17T09:41:24.545Z,6.83
2017-11-17T09:42:33.457Z,6.97
2017-11-17T09:43:42.314Z,6.97
2017-11-17T09:44:51.162Z,7
2017-11-17T09:45:59.794Z,7.01
2017-11-17T09:47:08.415Z,7.03
2017-11-17T09:48:17.040Z,7.03
2017-11-17T09:49:25.662Z,7.11
2017-11-17T09:50:34.286Z,7.05
2017-11-17T09:51:42.917Z,7.11
2017-11-17T09:52:51.539Z,7.14
2017-11-17T09:54:00.165Z,7.15
2017-11-17T09:55:08.781Z,7.18
2017-11-17T09:56:17.673Z,7.28
2017-11-17T09:57:26.301Z,7.23
2017-11-17T09:58:34.921Z,7.26
2017-11-17T09:59:43.551Z,7.25
2017-11-17T10:00:52.446Z,7.31
2017-11-17T10:02:01.064Z,7.29
2017-11-17T10:03:09.687Z,7.39
2017-11-17T10:04:18.319Z,7.39
2017-11-17T10:05:26.940Z,7.44
2017-11-17T10:06:35.560Z,7.46
2017-11-17T10:07:44.183Z,7.46
2017-11-17T10:08:52.802Z,7.47
2017-11-17T10:10:01.435Z,7.48
2017-11-17T10:11:10.071Z,7.64
2017-11-17T10:12:18.693Z,7.61
2017-11-17T10:13:27.329Z,7.62
2017-11-17T10:14:35.949Z,7.59
2017-11-17T10:15:44.846Z,7.61
2017-11-17T10:16:53.465Z,7.67
2017-11-17T10:18:02.096Z,7.69
2017-11-17T10:19:11.076Z,7.8
2017-11-17T10:20:19.971Z,7.83
2017-11-17T10:21:28.598Z,7.78
2017-11-17T10:22:37.215Z,7.83
2017-11-17T10:23:45.845Z,7.9
2017-11-17T10:24:54.469Z,7.83
2017-11-17T10:26:03.097Z,7.87
2017-11-17T10:27:11.729Z,7.91
2017-11-17T10:28:20.340Z,8.01
2017-11-17T10:29:28.963Z,7.99
2017-11-17T10:30:37.868Z,8.02
2017-11-17T10:31:46.476Z,8.06
2017-11-17T10:32:55.103Z,8.11
2017-11-17T10:34:03.731Z,8.08
2017-11-17T10:35:12.352Z,8.08
2017-11-17T10:36:20.975Z,8.16
2017-11-17T10:37:29.608Z,8.14
2017-11-17T10:38:38.511Z,8.26
2017-11-17T10:39:47.152Z,8.17
2017-11-17T10:40:55.754Z,8.17
2017-11-17T10:42:04.381Z,8.16
2017-11-17T10:43:13.008Z,8.27
2017-11-17T10:44:21.902Z,8.31
2017-11-17T10:45:30.533Z,8.2
2017-11-17T10:46:39.151Z,8.26
2017-11-17T10:47:47.778Z,8.28
2017-11-17T10:48:56.405Z,8.26
2017-11-17T10:50:05.023Z,8.24
2017-11-17T10:51:13.648Z,8.27
2017-11-17T10:52:22.567Z,8.34
2017-11-17T10:53:31.452Z,8.27
2017-11-17T10:54:40.081Z,8.34
2017-11-17T10:55:48.961Z,8.42
2017-11-17T10:56:57.591Z,8.42
2017-11-17T10:58:06.488Z,8.5
2017-11-17T10:59:15.106Z,8.44
2017-11-17T11:00:23.734Z,8.49
2017-11-17T11:01:32.358Z,8.54
2017-11-17T11:02:40.979Z,8.59
2017-11-17T11:03:49.602Z,8.63
2017-11-17T11:04:58.244Z,8.69
2017-11-17T11:06:06.859Z,8.74
2017-11-17T11:07:15.485Z,8.74
2017-11-17T11:08:24.108Z,8.77
2017-11-17T11:09:32.726Z,8.75
2017-11-17T11:10:41.625Z,8.81
2017-11-17T11:11:50.247Z,8.89
2017-11-17T11:12:58.874Z,8.82
2017-11-17T11:14:07.504Z,8.84
2017-11-17T11:15:16.390Z,8.86
2017-11-17T11:16:25.021Z,8.82
2017-11-17T11:17:33.638Z,8.96
2017-11-17T11:18:42.266Z,8.9
2017-11-17T11:19:51.169Z,8.87
2017-11-17T11:20:59.792Z,8.93
2017-11-17T11:22:08.423Z,9
2017-11-17T11:23:17.042Z,9.02
2017-11-17T11:24:25.672Z,9.05
2017-11-17T11:25:34.297Z,9
2017-11-17T11:26:42.913Z,9.11
2017-11-17T11:27:51.538Z,9.22
2017-11-17T11:29:00.170Z,9.19
2017-11-17T11:30:08.792Z,9.26
2017-11-17T11:31:17.413Z,9.19
2017-11-17T11:32:26.045Z,9.21
2017-11-17T11:33:34.668Z,9.18
2017-11-17T11:34:43.294Z,9.18
2017-11-17T11:35:51.928Z,9.15
2017-11-17T11:37:00.546Z,9.19
2017-11-17T11:38:09.178Z,9.18
2017-11-17T11:39:17.804Z,9.13
2017-11-17T11:40:26.426Z,9.18
2017-11-17T11:41:35.327Z,9.31
2017-11-17T11:42:43.964Z,9.22
2017-11-17T11:43:52.854Z,9.27
2017-11-17T11:45:01.472Z,9.16
2017-11-17T11:46:10.102Z,9.21
2017-11-17T11:47:18.735Z,9.26
2017-11-17T11:48:27.357Z,9.21
2017-11-17T11:49:35.979Z,9.13
2017-11-17T11:50:44.610Z,9.29
2017-11-17T11:51:53.235Z,9.33
2017-11-17T11:53:02.134Z,9.37
2017-11-17T11:54:10.751Z,9.29
2017-11-17T11:55:19.376Z,9.26
2017-11-17T11:56:28.007Z,9.33
2017-11-17T11:57:36.638Z,9.36
2017-11-17T11:58:45.253Z,9.39
2017-11-17T11:59:53.888Z,9.34
2017-11-17T12:01:02.513Z,9.42
2017-11-17T12:02:11.153Z,9.34
2017-11-17T12:03:19.771Z,9.44
2017-11-17T12:04:28.396Z,9.47
2017-11-17T12:05:37.019Z,9.45
2017-11-17T12:06:45.645Z,9.44
2017-11-17T12:07:54.267Z,9.42
2017-11-17T12:09:02.892Z,9.31
2017-11-17T12:10:11.516Z,9.37
2017-11-17T12:11:20.140Z,9.29
2017-11-17T12:12:28.780Z,9.19
2017-11-17T12:13:37.682Z,9.21
2017-11-17T12:14:46.301Z,9.15
2017-11-17T12:15:54.929Z,9.22
2017-11-17T12:17:03.557Z,9.21
2017-11-17T12:18:12.176Z,9.36
2017-11-17T12:19:20.805Z,9.39
2017-11-17T12:20:29.434Z,9.34
2017-11-17T12:21:38.062Z,9.36
2017-11-17T12:22:46.682Z,9.34
2017-11-17T12:23:55.306Z,9.33
2017-11-17T12:25:04.200Z,9.3
2017-11-17T12:26:12.828Z,9.42
2017-11-17T12:27:21.455Z,9.44
2017-11-17T12:28:30.623Z,9.47
2017-11-17T12:29:39.253Z,9.49
2017-11-17T12:30:47.871Z,9.45
2017-11-17T12:31:56.500Z,9.48
2017-11-17T12:33:05.127Z,9.48
2017-11-17T12:34:13.752Z,9.47
2017-11-17T12:35:22.656Z,9.31
2017-11-17T12:36:31.281Z,9.33
2017-11-17T12:37:39.905Z,9.27
2017-11-17T12:38:48.540Z,9.24
2017-11-17T12:39:57.154Z,9.26
2017-11-17T12:41:05.780Z,9.22
2017-11-17T12:42:14.408Z,9.05
2017-11-17T12:43:23.038Z,9.03
2017-11-17T12:44:31.668Z,9.08
2017-11-17T12:45:40.285Z,9
2017-11-17T12:46:48.912Z,8.97
2017-11-17T12:47:57.540Z,8.95
2017-11-17T12:49:06.163Z,8.84
2017-11-17T12:50:14.791Z,8.95
2017-11-17T12:51:23.412Z,8.93
2017-11-17T12:52:32.036Z,8.89
2017-11-17T12:53:40.662Z,8.92
2017-11-17T12:54:49.286Z,8.92
2017-11-17T12:55:58.172Z,8.86
2017-11-17T12:57:06.801Z,8.92
2017-11-17T12:58:15.415Z,8.95
2017-11-17T12:59:24.050Z,8.81
2017-11-17T13:00:32.677Z,8.84
2017-11-17T13:01:41.565Z,9.02
2017-11-17T13:02:50.196Z,8.89
2017-11-17T13:03:58.817Z,8.95
2017-11-17T13:05:07.438Z,8.9
2017-11-17T13:06:16.064Z,8.87
2017-11-17T13:07:24.683Z,8.97
2017-11-17T13:08:33.317Z,8.9
2017-11-17T13:09:41.950Z,8.93
2017-11-17T13:10:50.572Z,8.99
2017-11-17T13:12:00.013Z,9.05
2017-11-17T13:13:08.648Z,9.15
2017-11-17T13:14:17.269Z,9.19
2017-11-17T13:15:25.897Z,9.3
2017-11-17T13:16:34.529Z,9.26
2017-11-17T13:17:43.146Z,9.36
2017-11-17T13:18:51.770Z,9.33
2017-11-17T13:20:00.689Z,9.31
2017-11-17T13:21:09.315Z,9.37
2017-11-17T13:22:17.945Z,9.3
2017-11-17T13:23:26.570Z,9.31
2017-11-17T13:24:35.191Z,9.37
2017-11-17T13:25:44.092Z,9.4
2017-11-17T13:26:52.983Z,9.45
2017-11-17T13:28:01.609Z,9.47
2017-11-17T13:29:10.236Z,9.52
2017-11-17T13:30:18.862Z,9.52
2017-11-17T13:31:27.493Z,9.47
2017-11-17T13:32:36.110Z,9.58
2017-11-17T13:33:44.734Z,9.51
2017-11-17T13:34:53.368Z,9.58
2017-11-17T13:36:01.991Z,9.54
2017-11-17T13:37:10.621Z,9.64
2017-11-17T13:38:19.242Z,9.62
2017-11-17T13:39:27.876Z,9.64
2017-11-17T13:40:36.497Z,9.74
2017-11-17T13:41:45.123Z,9.67
2017-11-17T13:42:53.741Z,9.76
2017-11-17T13:44:02.373Z,9.84
2017-11-17T13:45:10.999Z,9.9
2017-11-17T13:46:19.623Z,9.88
2017-11-17T13:47:28.258Z,9.91
2017-11-17T13:48:36.869Z,10
2017-11-17T13:49:45.499Z,9.99
2017-11-17T13:50:54.125Z,10.03
2017-11-17T13:52:02.748Z,10
2017-11-17T13:53:11.380Z,10.05
2017-11-17T13:54:20.001Z,10.03
2017-11-17T13:55:28.632Z,10.03
2017-11-17T13:56:37.256Z,9.94
2017-11-17T13:57:45.890Z,9.95
2017-11-17T13:58:54.507Z,9.87
2017-11-17T14:00:03.134Z,9.77
2017-11-17T14:01:12.036Z,9.74
2017-11-17T14:02:20.657Z,9.67
2017-11-17T14:03:29.291Z,9.66
2017-11-17T14:04:38.183Z,9.63
2017-11-17T14:05:46.809Z,9.55
2017-11-17T14:06:55.444Z,9.56
2017-11-17T14:08:04.062Z,9.49
2017-11-17T14:09:12.694Z,9.45
2017-11-17T14:10:21.321Z,9.44
2017-11-17T14:11:29.946Z,9.39
2017-11-17T14:12:38.569Z,9.36
2017-11-17T14:13:47.462Z,9.39
2017-11-17T14:14:56.085Z,9.26
2017-11-17T14:16:04.709Z,9.16
2017-11-17T14:17:13.342Z,9.24
2017-11-17T14:18:21.965Z,9.21
2017-11-17T14:19:30.590Z,9.15
2017-11-17T14:20:39.212Z,9.11
2017-11-17T14:21:47.837Z,9.11
2017-11-17T14:22:56.468Z,9.05
2017-11-17T14:24:05.093Z,9.11
2017-11-17T14:25:13.714Z,9.05
2017-11-17T14:26:22.356Z,9.12
2017-11-17T14:27:30.972Z,9.08
2017-11-17T14:28:39.593Z,9.08
2017-11-17T14:29:48.225Z,9.08
2017-11-17T14:30:56.855Z,9.02
2017-11-17T14:32:05.473Z,8.96
2017-11-17T14:33:14.093Z,8.96
2017-11-17T14:34:22.722Z,8.93
2017-11-17T14:35:31.352Z,8.9
2017-11-17T14:36:39.977Z,8.99
2017-11-17T14:37:48.596Z,9.08
2017-11-17T14:38:57.229Z,9
2017-11-17T14:40:05.849Z,9
2017-11-17T14:41:14.745Z,8.9
2017-11-17T14:42:23.370Z,8.97
2017-11-17T14:43:31.994Z,8.93
2017-11-17T14:44:40.891Z,9
2017-11-17T14:45:49.513Z,9.03
2017-11-17T14:46:58.140Z,8.87
2017-11-17T14:48:06.762Z,8.87
2017-11-17T14:49:15.389Z,8.92
2017-11-17T14:50:24.023Z,8.86
2017-11-17T14:51:32.647Z,8.87
2017-11-17T14:52:41.272Z,8.82
2017-11-17T14:53:49.904Z,8.81
2017-11-17T14:54:58.523Z,8.72
2017-11-17T14:56:07.142Z,8.63
2017-11-17T14:57:15.780Z,8.66
2017-11-17T14:58:24.407Z,8.54
2017-11-17T14:59:33.023Z,8.61
2017-11-17T15:00:41.653Z,8.6
2017-11-17T15:01:50.273Z,8.54
2017-11-17T15:02:58.903Z,8.46
2017-11-17T15:04:07.528Z,8.44
2017-11-17T15:05:16.154Z,8.31
2017-11-17T15:06:25.065Z,8.31
2017-11-17T15:07:33.671Z,8.2
2017-11-17T15:08:42.298Z,8.18
2017-11-17T15:09:50.923Z,8.11
2017-11-17T15:10:59.545Z,8.09
2017-11-17T15:12:08.180Z,8.03
2017-11-17T15:13:16.803Z,8.01
2017-11-17T15:14:25.429Z,7.98
2017-11-17T15:15:34.063Z,7.9
2017-11-17T15:16:42.678Z,7.77